• Join FlightAware (Why Join?)
  • Login
  • US Flag 
03:33AM EDT


 

Airport Tracker/Info


-or-


 

Live Flight TrackerFlight Track Log ✈ GJS6221 ✈ 10-Jun-2014 ✈ KLGA - KORF

Flight Track Log - Related Links

Times and Time Zones

All times are in EDT time to prevent confusion due to time zone crossing. See the GJS6221 flight status page for this flight to view local times or setup timezone preferences in your user account.

Time Position Orientation Groundspeed Altitude Reporting Facility
EDT Latitude Longitude Course Direction KTS MPH feet Rate Location/Type
10:42AM 40.7333 -73.8333 90° East 192 221 2,400  Level New York TRACON
10:43AM 40.7333 -73.7667 90° East 233 268 5,200 1,860 Climbing New York TRACON
10:44AM 40.7833 -73.8000 333° Northwest 254 292 6,000 780 Climbing New York TRACON
10:45AM 40.7333 -73.8500 217° Southwest 255 293 6,800 420 Climbing New York TRACON
10:46AM 40.6500 -73.8333 171° South 292 336 7,000 60 Climbing New York TRACON
10:47AM 40.5833 -73.8500 191° South 279 321 7,000 -60 Level New York TRACON
11:02AM 39.5972 -74.6381 229° Southwest 296 341 6,800 120 Descending Washington Center
11:03AM 39.5691 -74.5966 218° Southwest  Level Estimated
11:03AM 39.5311 -74.7008 216° Southwest 296 341 9,800  Level Washington Center
11:04AM 39.5016 -74.6387 218° Southwest  Level Estimated
11:04AM 39.4503 -74.7692 213° Southwest 320 368 10,000  Level Washington Center
11:05AM 39.4341 -74.6808 216° Southwest  Level Estimated
11:05AM 39.3569 -74.8319 207° Southwest 351 404 11,200  Level Washington Center
11:06AM 39.3832 -74.7554 229° Southwest  Level FlightAware Approximate
11:06AM 39.2656 -74.8947 208° Southwest 371 427 13,500  Level Washington Center
11:07AM 39.1700 -74.9597 208° Southwest 382 440 15,700 1,140 Climbing Washington Center
11:08AM 39.0703 -75.0275 208° Southwest 393 452 15,900 120 Climbing Washington Center
11:09AM 38.9747 -75.0922 208° Southwest 393 452 16,000  Climbing Washington Center
11:10AM 38.8750 -75.1622 209° Southwest 398 458 15,900  Descending Washington Center
11:11AM 38.7750 -75.2269 207° Southwest 398 458 16,000  Climbing Washington Center
11:12AM 38.6731 -75.2911 206° Southwest 403 464 16,000  Level Washington Center
11:13AM 38.5753 -75.3606 209° Southwest 408 470 16,000  Level Washington Center
11:14AM 38.4753 -75.4300 209° Southwest 408 470 16,000  Level Washington Center
11:15AM 38.3733 -75.4936 206° Southwest 408 470 16,000  Level Washington Center
11:16AM 38.2733 -75.5572 207° Southwest 408 470 16,000  Level Washington Center
11:17AM 38.1689 -75.6181 205° Southwest 413 475 16,000  Level Washington Center
11:18AM 38.0772 -75.6814 209° Southwest 405 466 16,000  Level Washington Center
11:18AM 38.0689 -75.6842 195° South 403 464 16,000 -180 Level Washington Center
11:18AM 38.0042 -75.7261 207° Southwest 404 465 15,900 -720 Descending Washington Center
11:19AM 37.9708 -75.7444 203° Southwest 403 464 15,300 -1,740 Descending Washington Center
11:20AM 37.8872 -75.7997 208° Southwest 408 470 14,000 -1,620 Descending Washington Center
11:20AM 37.8706 -75.8128 212° Southwest 403 464 13,700 -1,500 Descending Washington Center
11:21AM 37.7683 -75.8703 204° Southwest 408 470 12,100 -1,680 Descending Washington Center
11:22AM 37.6742 -75.9119 199° South 392 451 10,700 -1,140 Descending Washington Center
11:23AM 37.5719 -75.9297 188° South 360 414 10,000 -420 Descending Washington Center
11:24AM 37.4928 -75.9453 189° South 350 403 10,000  Level Washington Center
11:24AM 37.4739 -75.9450 179° South 367 422 10,000  Level Washington Center
11:24AM 37.4114 -75.9578 189° South 314 361 10,000  Level Washington Center
11:25AM 37.3864 -75.9603 185° South 348 400 10,000 -900 Level Washington Center
11:25AM 37.3319 -75.9706 189° South 273 314 9,100 -1,620 Descending Washington Center
11:26AM 37.3092 -75.9731 185° South 309 356 8,400 -2,160 Descending Washington Center
11:27AM 37.2464 -75.9858 189° South 285 328 6,700 -2,220 Descending Washington Center
11:27AM 37.2297 -75.9883 187° South 293 337 6,300 -1,860 Descending Washington Center
11:27AM 37.1756 -75.9986 189° South 278 320 5,000 -1,980 Descending Washington Center
11:28AM 37.1025 -76.0267 197° South 254 292 3,100 -1,500 Descending Washington Center
11:29AM 37.0417 -76.0603 180° South 243 280 2,000 -600 Descending Washington Center
11:30AM 37.0315 -76.0864 180° South  Level Estimated
11:31AM 36.9894 -76.1119 218° Southwest 243 280 2,000  Level Washington Center
11:32AM 36.9456 -76.1506 215° Southwest 172 198 1,100 -840 Descending Washington Center
11:33AM 36.9119 -76.1842 219° Southwest 123 142 300 -840 Descending Washington Center